sensor_id;sensor_type;location;lat;lon;timestamp;temperature;humidity
29341;DHT22;16337;59.536;13.468;2023-06-22T00:02:00;17.70;99.90
29341;DHT22;16337;59.536;13.468;2023-06-22T00:04:26;17.70;99.90
29341;DHT22;16337;59.536;13.468;2023-06-22T00:07:01;17.60;99.90
29341;DHT22;16337;59.536;13.468;2023-06-22T00:09:27;17.60;99.90
29341;DHT22;16337;59.536;13.468;2023-06-22T00:11:52;17.70;99.90
29341;DHT22;16337;59.536;13.468;2023-06-22T00:14:18;17.70;99.90
29341;DHT22;16337;59.536;13.468;2023-06-22T00:16:44;17.80;99.90
29341;DHT22;16337;59.536;13.468;2023-06-22T00:19:14;17.80;99.90
29341;DHT22;16337;59.536;13.468;2023-06-22T00:21:40;17.90;99.90
29341;DHT22;16337;59.536;13.468;2023-06-22T00:24:07;18.00;99.90
29341;DHT22;16337;59.536;13.468;2023-06-22T00:26:33;18.00;99.90
29341;DHT22;16337;59.536;13.468;2023-06-22T00:28:59;18.00;99.90
29341;DHT22;16337;59.536;13.468;2023-06-22T00:31:25;18.00;99.90
29341;DHT22;16337;59.536;13.468;2023-06-22T00:33:50;18.00;99.90
29341;DHT22;16337;59.536;13.468;2023-06-22T00:36:16;18.10;99.90
29341;DHT22;16337;59.536;13.468;2023-06-22T00:38:43;18.10;99.90
29341;DHT22;16337;59.536;13.468;2023-06-22T00:41:09;18.00;99.90
29341;DHT22;16337;59.536;13.468;2023-06-22T00:43:35;18.00;99.90
29341;DHT22;16337;59.536;13.468;2023-06-22T00:46:01;17.80;99.90
29341;DHT22;16337;59.536;13.468;2023-06-22T00:48:26;17.70;99.90
29341;DHT22;16337;59.536;13.468;2023-06-22T00:50:52;17.60;99.90
29341;DHT22;16337;59.536;13.468;2023-06-22T00:53:21;17.60;99.90
29341;DHT22;16337;59.536;13.468;2023-06-22T00:55:47;17.60;99.90
29341;DHT22;16337;59.536;13.468;2023-06-22T00:58:13;17.70;99.90
29341;DHT22;16337;59.536;13.468;2023-06-22T01:00:40;17.60;99.90
29341;DHT22;16337;59.536;13.468;2023-06-22T01:03:06;17.70;99.90
29341;DHT22;16337;59.536;13.468;2023-06-22T01:05:39;17.80;99.90
29341;DHT22;16337;59.536;13.468;2023-06-22T01:11:16;17.80;99.90
29341;DHT22;16337;59.536;13.468;2023-06-22T01:16:30;18.00;99.90
29341;DHT22;16337;59.536;13.468;2023-06-22T01:19:00;18.00;99.90
29341;DHT22;16337;59.536;13.468;2023-06-22T01:21:28;18.00;99.90
29341;DHT22;16337;59.536;13.468;2023-06-22T01:24:30;18.10;99.90
29341;DHT22;16337;59.536;13.468;2023-06-22T01:29:37;18.10;99.90
29341;DHT22;16337;59.536;13.468;2023-06-22T01:32:05;18.20;99.90
29341;DHT22;16337;59.536;13.468;2023-06-22T01:34:32;18.20;99.90
29341;DHT22;16337;59.536;13.468;2023-06-22T01:36:59;18.20;99.90
29341;DHT22;16337;59.536;13.468;2023-06-22T01:39:27;18.30;99.90
29341;DHT22;16337;59.536;13.468;2023-06-22T01:41:53;18.30;99.90
29341;DHT22;16337;59.536;13.468;2023-06-22T01:44:20;18.30;99.90
29341;DHT22;16337;59.536;13.468;2023-06-22T01:46:48;18.30;99.90
29341;DHT22;16337;59.536;13.468;2023-06-22T01:49:15;18.30;99.90
29341;DHT22;16337;59.536;13.468;2023-06-22T01:51:40;18.30;99.90
29341;DHT22;16337;59.536;13.468;2023-06-22T01:54:07;18.30;99.90
29341;DHT22;16337;59.536;13.468;2023-06-22T01:56:34;18.30;99.90
29341;DHT22;16337;59.536;13.468;2023-06-22T01:59:10;18.30;99.90
29341;DHT22;16337;59.536;13.468;2023-06-22T02:01:44;18.30;99.90
29341;DHT22;16337;59.536;13.468;2023-06-22T02:04:24;18.30;99.90
29341;DHT22;16337;59.536;13.468;2023-06-22T02:06:55;18.30;99.90
29341;DHT22;16337;59.536;13.468;2023-06-22T02:09:22;18.30;99.90
29341;DHT22;16337;59.536;13.468;2023-06-22T02:11:51;18.40;99.90
29341;DHT22;16337;59.536;13.468;2023-06-22T02:14:24;18.30;99.90
29341;DHT22;16337;59.536;13.468;2023-06-22T02:16:56;18.40;99.90
29341;DHT22;16337;59.536;13.468;2023-06-22T02:19:24;18.40;99.90
29341;DHT22;16337;59.536;13.468;2023-06-22T02:21:51;18.50;99.90
29341;DHT22;16337;59.536;13.468;2023-06-22T02:24:16;18.50;99.90
29341;DHT22;16337;59.536;13.468;2023-06-22T02:26:51;18.40;99.90
29341;DHT22;16337;59.536;13.468;2023-06-22T02:29:23;18.40;99.90
29341;DHT22;16337;59.536;13.468;2023-06-22T02:31:53;18.50;99.90
29341;DHT22;16337;59.536;13.468;2023-06-22T02:34:22;18.50;99.90
29341;DHT22;16337;59.536;13.468;2023-06-22T02:36:51;18.50;99.90
29341;DHT22;16337;59.536;13.468;2023-06-22T02:39:24;18.50;99.90
29341;DHT22;16337;59.536;13.468;2023-06-22T02:41:53;18.50;99.90
29341;DHT22;16337;59.536;13.468;2023-06-22T02:44:20;18.40;99.90
29341;DHT22;16337;59.536;13.468;2023-06-22T02:46:48;18.30;99.90
29341;DHT22;16337;59.536;13.468;2023-06-22T02:49:17;18.20;99.90
29341;DHT22;16337;59.536;13.468;2023-06-22T02:51:47;18.20;99.90
29341;DHT22;16337;59.536;13.468;2023-06-22T02:54:13;18.10;99.90
29341;DHT22;16337;59.536;13.468;2023-06-22T02:56:39;18.00;99.90
29341;DHT22;16337;59.536;13.468;2023-06-22T02:59:09;18.00;99.90
29341;DHT22;16337;59.536;13.468;2023-06-22T03:01:36;18.10;99.90
29341;DHT22;16337;59.536;13.468;2023-06-22T03:04:19;18.20;99.90
29341;DHT22;16337;59.536;13.468;2023-06-22T03:06:52;18.20;99.90
29341;DHT22;16337;59.536;13.468;2023-06-22T03:09:20;18.40;99.90
29341;DHT22;16337;59.536;13.468;2023-06-22T03:11:46;18.50;99.90
29341;DHT22;16337;59.536;13.468;2023-06-22T03:14:12;18.50;99.90
29341;DHT22;16337;59.536;13.468;2023-06-22T03:16:37;18.60;99.90
29341;DHT22;16337;59.536;13.468;2023-06-22T03:19:03;18.60;99.90
29341;DHT22;16337;59.536;13.468;2023-06-22T03:21:29;18.60;99.90
29341;DHT22;16337;59.536;13.468;2023-06-22T03:24:10;18.50;99.90
29341;DHT22;16337;59.536;13.468;2023-06-22T03:26:55;18.60;99.90
29341;DHT22;16337;59.536;13.468;2023-06-22T03:29:26;18.60;99.90
29341;DHT22;16337;59.536;13.468;2023-06-22T03:31:52;18.60;99.90
29341;DHT22;16337;59.536;13.468;2023-06-22T03:34:21;18.50;99.90
29341;DHT22;16337;59.536;13.468;2023-06-22T03:36:46;18.60;99.90
29341;DHT22;16337;59.536;13.468;2023-06-22T03:39:12;18.50;99.90
29341;DHT22;16337;59.536;13.468;2023-06-22T03:41:38;18.30;99.90
29341;DHT22;16337;59.536;13.468;2023-06-22T03:44:04;18.20;99.90
29341;DHT22;16337;59.536;13.468;2023-06-22T03:46:30;18.20;99.90
29341;DHT22;16337;59.536;13.468;2023-06-22T03:48:56;18.30;99.90
29341;DHT22;16337;59.536;13.468;2023-06-22T03:51:21;18.30;99.90
29341;DHT22;16337;59.536;13.468;2023-06-22T03:53:47;18.30;99.90
29341;DHT22;16337;59.536;13.468;2023-06-22T03:56:13;18.40;99.90
29341;DHT22;16337;59.536;13.468;2023-06-22T03:58:45;18.50;99.90
29341;DHT22;16337;59.536;13.468;2023-06-22T04:01:11;18.50;99.90
29341;DHT22;16337;59.536;13.468;2023-06-22T04:03:38;18.70;99.90
29341;DHT22;16337;59.536;13.468;2023-06-22T04:06:03;18.70;99.90
29341;DHT22;16337;59.536;13.468;2023-06-22T04:08:30;18.90;99.90
29341;DHT22;16337;59.536;13.468;2023-06-22T04:10:55;19.00;99.90
29341;DHT22;16337;59.536;13.468;2023-06-22T04:13:22;19.00;99.90
29341;DHT22;16337;59.536;13.468;2023-06-22T04:15:47;19.00;99.90
29341;DHT22;16337;59.536;13.468;2023-06-22T04:18:13;19.00;99.90
29341;DHT22;16337;59.536;13.468;2023-06-22T04:20:41;19.00;99.90
29341;DHT22;16337;59.536;13.468;2023-06-22T04:23:07;19.10;99.90
29341;DHT22;16337;59.536;13.468;2023-06-22T04:25:33;19.10;99.90
29341;DHT22;16337;59.536;13.468;2023-06-22T04:28:06;19.20;99.90
29341;DHT22;16337;59.536;13.468;2023-06-22T04:30:38;19.40;99.90
29341;DHT22;16337;59.536;13.468;2023-06-22T04:33:15;19.40;99.90
29341;DHT22;16337;59.536;13.468;2023-06-22T04:35:41;19.50;99.90
29341;DHT22;16337;59.536;13.468;2023-06-22T04:38:11;19.50;99.90
29341;DHT22;16337;59.536;13.468;2023-06-22T04:40:39;19.50;99.90
29341;DHT22;16337;59.536;13.468;2023-06-22T04:43:04;19.40;99.90
29341;DHT22;16337;59.536;13.468;2023-06-22T04:45:32;19.50;99.90
29341;DHT22;16337;59.536;13.468;2023-06-22T04:47:58;19.60;99.90
29341;DHT22;16337;59.536;13.468;2023-06-22T04:50:24;19.70;99.90
29341;DHT22;16337;59.536;13.468;2023-06-22T04:52:50;19.50;99.90
29341;DHT22;16337;59.536;13.468;2023-06-22T04:55:16;19.20;99.90
29341;DHT22;16337;59.536;13.468;2023-06-22T04:57:47;19.30;99.90
29341;DHT22;16337;59.536;13.468;2023-06-22T05:00:17;19.40;99.90
29341;DHT22;16337;59.536;13.468;2023-06-22T05:02:45;19.50;99.90
29341;DHT22;16337;59.536;13.468;2023-06-22T05:05:12;19.80;99.90
29341;DHT22;16337;59.536;13.468;2023-06-22T05:07:45;19.90;99.90
29341;DHT22;16337;59.536;13.468;2023-06-22T05:10:14;20.10;99.90
29341;DHT22;16337;59.536;13.468;2023-06-22T05:12:41;20.10;99.90
29341;DHT22;16337;59.536;13.468;2023-06-22T05:15:10;20.20;99.90
29341;DHT22;16337;59.536;13.468;2023-06-22T05:17:37;20.40;99.90
29341;DHT22;16337;59.536;13.468;2023-06-22T05:20:09;20.10;99.90
29341;DHT22;16337;59.536;13.468;2023-06-22T05:22:35;20.20;99.90
29341;DHT22;16337;59.536;13.468;2023-06-22T05:25:00;20.30;99.90
29341;DHT22;16337;59.536;13.468;2023-06-22T05:27:26;20.20;99.90
29341;DHT22;16337;59.536;13.468;2023-06-22T05:29:52;20.30;99.90
29341;DHT22;16337;59.536;13.468;2023-06-22T05:32:18;20.10;99.90
29341;DHT22;16337;59.536;13.468;2023-06-22T05:34:44;19.90;99.90
29341;DHT22;16337;59.536;13.468;2023-06-22T05:37:10;19.80;99.90
29341;DHT22;16337;59.536;13.468;2023-06-22T05:39:36;19.80;99.90
29341;DHT22;16337;59.536;13.468;2023-06-22T05:42:05;19.80;99.90
29341;DHT22;16337;59.536;13.468;2023-06-22T05:44:32;20.00;99.90
29341;DHT22;16337;59.536;13.468;2023-06-22T05:46:59;20.10;99.90
29341;DHT22;16337;59.536;13.468;2023-06-22T05:49:24;20.30;99.90
29341;DHT22;16337;59.536;13.468;2023-06-22T05:51:55;20.50;99.90
29341;DHT22;16337;59.536;13.468;2023-06-22T05:54:21;20.50;99.90
29341;DHT22;16337;59.536;13.468;2023-06-22T05:56:46;20.50;99.90
29341;DHT22;16337;59.536;13.468;2023-06-22T05:59:12;20.30;99.90
29341;DHT22;16337;59.536;13.468;2023-06-22T06:01:38;20.40;99.90
29341;DHT22;16337;59.536;13.468;2023-06-22T06:04:05;20.40;99.90
29341;DHT22;16337;59.536;13.468;2023-06-22T06:06:33;20.50;99.90
29341;DHT22;16337;59.536;13.468;2023-06-22T06:09:00;20.30;99.90
29341;DHT22;16337;59.536;13.468;2023-06-22T06:11:26;20.40;99.90
29341;DHT22;16337;59.536;13.468;2023-06-22T06:13:52;20.40;99.90
29341;DHT22;16337;59.536;13.468;2023-06-22T06:16:18;20.40;99.90
29341;DHT22;16337;59.536;13.468;2023-06-22T06:18:43;20.40;99.90
29341;DHT22;16337;59.536;13.468;2023-06-22T06:21:09;20.30;99.90
29341;DHT22;16337;59.536;13.468;2023-06-22T06:23:35;20.40;99.90
29341;DHT22;16337;59.536;13.468;2023-06-22T06:26:01;20.20;99.90
29341;DHT22;16337;59.536;13.468;2023-06-22T06:28:26;20.40;99.90
29341;DHT22;16337;59.536;13.468;2023-06-22T06:30:52;20.60;99.90
29341;DHT22;16337;59.536;13.468;2023-06-22T06:33:19;20.80;99.90
29341;DHT22;16337;59.536;13.468;2023-06-22T06:35:46;21.20;99.90
29341;DHT22;16337;59.536;13.468;2023-06-22T06:38:12;21.30;99.90
29341;DHT22;16337;59.536;13.468;2023-06-22T06:40:37;21.40;99.90
29341;DHT22;16337;59.536;13.468;2023-06-22T06:43:03;21.30;99.90
29341;DHT22;16337;59.536;13.468;2023-06-22T06:45:29;21.30;99.90
29341;DHT22;16337;59.536;13.468;2023-06-22T06:47:58;21.50;99.90
29341;DHT22;16337;59.536;13.468;2023-06-22T06:50:24;21.50;99.90
29341;DHT22;16337;59.536;13.468;2023-06-22T06:52:49;21.70;99.90
29341;DHT22;16337;59.536;13.468;2023-06-22T06:55:16;21.70;99.90
29341;DHT22;16337;59.536;13.468;2023-06-22T06:57:42;21.70;99.90
29341;DHT22;16337;59.536;13.468;2023-06-22T07:00:13;21.80;99.90
29341;DHT22;16337;59.536;13.468;2023-06-22T07:02:40;21.90;99.90
29341;DHT22;16337;59.536;13.468;2023-06-22T07:05:07;22.00;99.90
29341;DHT22;16337;59.536;13.468;2023-06-22T07:07:33;21.80;99.90
29341;DHT22;16337;59.536;13.468;2023-06-22T07:09:59;21.80;99.90
29341;DHT22;16337;59.536;13.468;2023-06-22T07:12:25;21.70;99.90
29341;DHT22;16337;59.536;13.468;2023-06-22T07:14:52;21.90;99.90
29341;DHT22;16337;59.536;13.468;2023-06-22T07:17:18;22.00;99.90
29341;DHT22;16337;59.536;13.468;2023-06-22T07:19:44;21.90;99.90
29341;DHT22;16337;59.536;13.468;2023-06-22T07:22:22;21.90;99.90
29341;DHT22;16337;59.536;13.468;2023-06-22T07:24:48;22.00;99.90
29341;DHT22;16337;59.536;13.468;2023-06-22T07:27:14;21.90;99.90
29341;DHT22;16337;59.536;13.468;2023-06-22T07:29:43;21.90;99.90
29341;DHT22;16337;59.536;13.468;2023-06-22T07:32:09;22.00;99.90
29341;DHT22;16337;59.536;13.468;2023-06-22T07:34:35;22.20;99.90
29341;DHT22;16337;59.536;13.468;2023-06-22T07:37:01;22.30;99.90
29341;DHT22;16337;59.536;13.468;2023-06-22T07:39:26;22.20;99.90
29341;DHT22;16337;59.536;13.468;2023-06-22T07:41:53;22.30;99.90
29341;DHT22;16337;59.536;13.468;2023-06-22T07:44:19;22.30;99.90
29341;DHT22;16337;59.536;13.468;2023-06-22T07:46:45;22.70;99.90
29341;DHT22;16337;59.536;13.468;2023-06-22T07:49:12;22.90;99.90
29341;DHT22;16337;59.536;13.468;2023-06-22T07:51:38;22.90;99.90
29341;DHT22;16337;59.536;13.468;2023-06-22T07:54:03;22.90;99.90
29341;DHT22;16337;59.536;13.468;2023-06-22T07:56:29;22.90;99.90
29341;DHT22;16337;59.536;13.468;2023-06-22T07:58:55;23.20;99.90
29341;DHT22;16337;59.536;13.468;2023-06-22T08:01:23;23.50;99.90
29341;DHT22;16337;59.536;13.468;2023-06-22T08:03:51;23.60;99.90
29341;DHT22;16337;59.536;13.468;2023-06-22T08:06:20;23.80;99.90
29341;DHT22;16337;59.536;13.468;2023-06-22T08:08:45;23.80;99.90
29341;DHT22;16337;59.536;13.468;2023-06-22T08:11:13;23.50;99.90
29341;DHT22;16337;59.536;13.468;2023-06-22T08:13:39;23.60;99.90
29341;DHT22;16337;59.536;13.468;2023-06-22T08:16:05;23.70;99.90
29341;DHT22;16337;59.536;13.468;2023-06-22T08:18:31;23.80;99.90
29341;DHT22;16337;59.536;13.468;2023-06-22T08:20:57;24.20;99.90
29341;DHT22;16337;59.536;13.468;2023-06-22T08:23:22;24.50;99.90
29341;DHT22;16337;59.536;13.468;2023-06-22T08:25:48;24.70;99.90
29341;DHT22;16337;59.536;13.468;2023-06-22T08:28:15;25.00;99.90
29341;DHT22;16337;59.536;13.468;2023-06-22T08:30:41;24.80;99.90
29341;DHT22;16337;59.536;13.468;2023-06-22T08:33:07;24.80;99.90
29341;DHT22;16337;59.536;13.468;2023-06-22T08:35:32;24.90;99.90
29341;DHT22;16337;59.536;13.468;2023-06-22T08:37:58;24.90;99.90
29341;DHT22;16337;59.536;13.468;2023-06-22T08:40:34;24.70;99.90
29341;DHT22;16337;59.536;13.468;2023-06-22T08:43:00;25.00;99.90
29341;DHT22;16337;59.536;13.468;2023-06-22T08:45:25;25.00;99.90
29341;DHT22;16337;59.536;13.468;2023-06-22T08:47:51;25.20;99.90
29341;DHT22;16337;59.536;13.468;2023-06-22T08:50:17;25.10;99.90
29341;DHT22;16337;59.536;13.468;2023-06-22T08:52:43;25.10;99.90
29341;DHT22;16337;59.536;13.468;2023-06-22T08:55:09;25.00;99.90
29341;DHT22;16337;59.536;13.468;2023-06-22T08:57:35;25.10;99.90
29341;DHT22;16337;59.536;13.468;2023-06-22T09:00:05;25.00;99.90
29341;DHT22;16337;59.536;13.468;2023-06-22T09:02:30;25.10;99.90
29341;DHT22;16337;59.536;13.468;2023-06-22T09:04:57;25.10;99.90
29341;DHT22;16337;59.536;13.468;2023-06-22T09:07:24;25.20;99.90
29341;DHT22;16337;59.536;13.468;2023-06-22T09:09:50;25.40;99.90
29341;DHT22;16337;59.536;13.468;2023-06-22T09:12:17;25.70;99.90
29341;DHT22;16337;59.536;13.468;2023-06-22T09:14:42;25.30;99.90
29341;DHT22;16337;59.536;13.468;2023-06-22T09:17:08;25.30;99.90
29341;DHT22;16337;59.536;13.468;2023-06-22T09:19:34;25.60;99.90
29341;DHT22;16337;59.536;13.468;2023-06-22T09:22:00;25.80;99.90
29341;DHT22;16337;59.536;13.468;2023-06-22T09:24:26;26.10;99.90
29341;DHT22;16337;59.536;13.468;2023-06-22T09:26:51;26.30;99.90
29341;DHT22;16337;59.536;13.468;2023-06-22T09:29:17;26.50;99.90
29341;DHT22;16337;59.536;13.468;2023-06-22T09:31:43;26.40;99.90
29341;DHT22;16337;59.536;13.468;2023-06-22T09:34:09;26.30;99.90
29341;DHT22;16337;59.536;13.468;2023-06-22T09:36:35;26.50;99.90
29341;DHT22;16337;59.536;13.468;2023-06-22T09:39:02;26.40;99.90
29341;DHT22;16337;59.536;13.468;2023-06-22T09:41:31;26.10;99.90
29341;DHT22;16337;59.536;13.468;2023-06-22T09:43:57;25.70;99.90
29341;DHT22;16337;59.536;13.468;2023-06-22T09:46:23;25.80;99.90
29341;DHT22;16337;59.536;13.468;2023-06-22T09:48:51;26.30;99.90
29341;DHT22;16337;59.536;13.468;2023-06-22T09:51:16;26.40;99.90
29341;DHT22;16337;59.536;13.468;2023-06-22T09:53:44;26.70;99.90
29341;DHT22;16337;59.536;13.468;2023-06-22T09:56:10;26.50;99.90
29341;DHT22;16337;59.536;13.468;2023-06-22T09:58:43;26.50;99.90
29341;DHT22;16337;59.536;13.468;2023-06-22T10:01:10;26.70;99.90
29341;DHT22;16337;59.536;13.468;2023-06-22T10:03:37;26.80;99.90
29341;DHT22;16337;59.536;13.468;2023-06-22T10:06:03;27.10;99.90
29341;DHT22;16337;59.536;13.468;2023-06-22T10:08:29;27.40;99.90
29341;DHT22;16337;59.536;13.468;2023-06-22T10:10:54;27.60;99.90
29341;DHT22;16337;59.536;13.468;2023-06-22T10:13:20;27.70;99.90
29341;DHT22;16337;59.536;13.468;2023-06-22T10:15:46;27.50;99.90
29341;DHT22;16337;59.536;13.468;2023-06-22T10:18:16;27.50;99.90
29341;DHT22;16337;59.536;13.468;2023-06-22T10:20:42;27.60;99.90
29341;DHT22;16337;59.536;13.468;2023-06-22T10:23:08;27.70;99.90
29341;DHT22;16337;59.536;13.468;2023-06-22T10:25:34;27.90;99.00
29341;DHT22;16337;59.536;13.468;2023-06-22T10:28:00;27.70;99.90
29341;DHT22;16337;59.536;13.468;2023-06-22T10:30:25;28.00;99.90
29341;DHT22;16337;59.536;13.468;2023-06-22T10:32:51;28.00;98.50
29341;DHT22;16337;59.536;13.468;2023-06-22T10:35:17;27.80;98.70
29341;DHT22;16337;59.536;13.468;2023-06-22T10:37:44;27.90;99.90
29341;DHT22;16337;59.536;13.468;2023-06-22T10:40:12;28.00;99.90
29341;DHT22;16337;59.536;13.468;2023-06-22T10:42:38;28.20;99.90
29341;DHT22;16337;59.536;13.468;2023-06-22T10:45:04;28.30;99.80
29341;DHT22;16337;59.536;13.468;2023-06-22T10:47:30;28.10;97.20
29341;DHT22;16337;59.536;13.468;2023-06-22T10:49:56;28.40;97.10
29341;DHT22;16337;59.536;13.468;2023-06-22T10:52:21;29.00;98.90
29341;DHT22;16337;59.536;13.468;2023-06-22T10:54:47;29.20;97.30
29341;DHT22;16337;59.536;13.468;2023-06-22T10:57:13;29.10;96.60
29341;DHT22;16337;59.536;13.468;2023-06-22T10:59:39;29.00;95.60
29341;DHT22;16337;59.536;13.468;2023-06-22T11:02:05;28.80;97.30
29341;DHT22;16337;59.536;13.468;2023-06-22T11:04:31;29.00;95.40
29341;DHT22;16337;59.536;13.468;2023-06-22T11:06:56;28.80;95.90
29341;DHT22;16337;59.536;13.468;2023-06-22T11:09:22;29.10;95.90
29341;DHT22;16337;59.536;13.468;2023-06-22T11:11:51;29.40;95.20
29341;DHT22;16337;59.536;13.468;2023-06-22T11:14:22;29.80;95.80
29341;DHT22;16337;59.536;13.468;2023-06-22T11:16:48;29.90;94.00
29341;DHT22;16337;59.536;13.468;2023-06-22T11:19:14;29.90;93.30
29341;DHT22;16337;59.536;13.468;2023-06-22T11:21:40;29.70;94.70
29341;DHT22;16337;59.536;13.468;2023-06-22T11:24:06;29.60;93.00
29341;DHT22;16337;59.536;13.468;2023-06-22T11:26:31;29.40;94.50
29341;DHT22;16337;59.536;13.468;2023-06-22T11:28:58;29.10;93.20
29341;DHT22;16337;59.536;13.468;2023-06-22T11:31:24;29.40;93.10
29341;DHT22;16337;59.536;13.468;2023-06-22T11:33:50;29.70;95.00
29341;DHT22;16337;59.536;13.468;2023-06-22T11:36:16;29.90;93.60
29341;DHT22;16337;59.536;13.468;2023-06-22T11:38:42;29.60;92.20
29341;DHT22;16337;59.536;13.468;2023-06-22T11:41:09;29.10;92.20
29341;DHT22;16337;59.536;13.468;2023-06-22T11:43:35;29.50;93.30
29341;DHT22;16337;59.536;13.468;2023-06-22T11:46:03;29.80;93.20
29341;DHT22;16337;59.536;13.468;2023-06-22T11:48:29;30.30;93.50
29341;DHT22;16337;59.536;13.468;2023-06-22T11:50:55;30.30;92.20
29341;DHT22;16337;59.536;13.468;2023-06-22T11:53:25;29.80;91.40
29341;DHT22;16337;59.536;13.468;2023-06-22T11:55:51;29.40;92.60
29341;DHT22;16337;59.536;13.468;2023-06-22T11:58:18;29.50;93.50
29341;DHT22;16337;59.536;13.468;2023-06-22T12:00:43;30.00;93.50
29341;DHT22;16337;59.536;13.468;2023-06-22T12:03:10;29.90;90.90
29341;DHT22;16337;59.536;13.468;2023-06-22T12:05:38;29.90;93.20
29341;DHT22;16337;59.536;13.468;2023-06-22T12:08:04;29.90;91.30
29341;DHT22;16337;59.536;13.468;2023-06-22T12:10:30;29.70;93.10
29341;DHT22;16337;59.536;13.468;2023-06-22T12:12:56;29.70;91.70
29341;DHT22;16337;59.536;13.468;2023-06-22T12:15:23;29.50;91.80
29341;DHT22;16337;59.536;13.468;2023-06-22T12:17:49;29.60;93.40
29341;DHT22;16337;59.536;13.468;2023-06-22T12:20:15;29.50;92.90
29341;DHT22;16337;59.536;13.468;2023-06-22T12:22:41;29.60;92.00
29341;DHT22;16337;59.536;13.468;2023-06-22T12:25:10;29.20;92.10
29341;DHT22;16337;59.536;13.468;2023-06-22T12:27:36;29.30;91.90
29341;DHT22;16337;59.536;13.468;2023-06-22T12:30:03;29.40;92.10
29341;DHT22;16337;59.536;13.468;2023-06-22T12:32:29;29.20;92.60
29341;DHT22;16337;59.536;13.468;2023-06-22T12:34:55;29.40;93.20
29341;DHT22;16337;59.536;13.468;2023-06-22T12:37:21;30.00;92.50
29341;DHT22;16337;59.536;13.468;2023-06-22T12:39:47;30.50;90.90
29341;DHT22;16337;59.536;13.468;2023-06-22T12:42:13;30.80;92.30
29341;DHT22;16337;59.536;13.468;2023-06-22T12:44:39;30.60;90.90
29341;DHT22;16337;59.536;13.468;2023-06-22T12:47:05;30.70;90.30
29341;DHT22;16337;59.536;13.468;2023-06-22T12:49:31;30.60;89.30
29341;DHT22;16337;59.536;13.468;2023-06-22T12:51:57;30.20;91.60
29341;DHT22;16337;59.536;13.468;2023-06-22T12:54:23;29.80;90.50
29341;DHT22;16337;59.536;13.468;2023-06-22T12:56:50;30.00;91.70
29341;DHT22;16337;59.536;13.468;2023-06-22T12:59:16;30.30;90.90
29341;DHT22;16337;59.536;13.468;2023-06-22T13:01:43;30.40;91.30
29341;DHT22;16337;59.536;13.468;2023-06-22T13:04:13;30.80;89.50
29341;DHT22;16337;59.536;13.468;2023-06-22T13:06:44;30.40;88.60
29341;DHT22;16337;59.536;13.468;2023-06-22T13:09:14;30.10;90.40
29341;DHT22;16337;59.536;13.468;2023-06-22T13:11:40;29.80;86.80
29341;DHT22;16337;59.536;13.468;2023-06-22T13:14:06;29.60;88.50
29341;DHT22;16337;59.536;13.468;2023-06-22T13:16:31;29.40;87.80
29341;DHT22;16337;59.536;13.468;2023-06-22T13:18:57;29.40;90.80
29341;DHT22;16337;59.536;13.468;2023-06-22T13:21:23;29.70;91.30
29341;DHT22;16337;59.536;13.468;2023-06-22T13:23:49;29.80;90.30
29341;DHT22;16337;59.536;13.468;2023-06-22T13:26:14;30.30;90.90
29341;DHT22;16337;59.536;13.468;2023-06-22T13:28:40;30.60;87.40
29341;DHT22;16337;59.536;13.468;2023-06-22T13:31:06;30.40;90.90
29341;DHT22;16337;59.536;13.468;2023-06-22T13:33:32;30.10;87.40
29341;DHT22;16337;59.536;13.468;2023-06-22T13:35:57;30.00;86.90
29341;DHT22;16337;59.536;13.468;2023-06-22T13:38:23;29.60;86.90
29341;DHT22;16337;59.536;13.468;2023-06-22T13:40:49;29.40;88.00
29341;DHT22;16337;59.536;13.468;2023-06-22T13:43:16;29.40;88.40
29341;DHT22;16337;59.536;13.468;2023-06-22T13:45:42;29.70;89.20
29341;DHT22;16337;59.536;13.468;2023-06-22T13:48:09;30.20;85.70
29341;DHT22;16337;59.536;13.468;2023-06-22T13:50:34;29.70;85.20
29341;DHT22;16337;59.536;13.468;2023-06-22T13:53:03;29.70;87.20
29341;DHT22;16337;59.536;13.468;2023-06-22T13:55:29;29.90;89.30
29341;DHT22;16337;59.536;13.468;2023-06-22T13:57:56;29.80;84.10
29341;DHT22;16337;59.536;13.468;2023-06-22T14:00:25;29.90;88.60
29341;DHT22;16337;59.536;13.468;2023-06-22T14:02:51;30.30;90.20
29341;DHT22;16337;59.536;13.468;2023-06-22T14:05:17;29.90;86.10
29341;DHT22;16337;59.536;13.468;2023-06-22T14:07:42;29.50;86.40
29341;DHT22;16337;59.536;13.468;2023-06-22T14:10:11;29.70;89.10
29341;DHT22;16337;59.536;13.468;2023-06-22T14:12:39;30.20;89.00
29341;DHT22;16337;59.536;13.468;2023-06-22T14:15:05;30.20;84.90
29341;DHT22;16337;59.536;13.468;2023-06-22T14:17:31;30.40;88.70
29341;DHT22;16337;59.536;13.468;2023-06-22T14:19:57;30.40;86.80
29341;DHT22;16337;59.536;13.468;2023-06-22T14:22:23;30.30;87.30
29341;DHT22;16337;59.536;13.468;2023-06-22T14:24:52;30.30;85.20
29341;DHT22;16337;59.536;13.468;2023-06-22T14:27:17;29.90;86.70
29341;DHT22;16337;59.536;13.468;2023-06-22T14:29:43;29.50;86.40
29341;DHT22;16337;59.536;13.468;2023-06-22T14:32:09;29.70;87.50
29341;DHT22;16337;59.536;13.468;2023-06-22T14:34:35;29.80;86.20
29341;DHT22;16337;59.536;13.468;2023-06-22T14:37:07;29.70;87.80
29341;DHT22;16337;59.536;13.468;2023-06-22T14:39:35;30.30;88.60
29341;DHT22;16337;59.536;13.468;2023-06-22T14:42:01;30.70;88.60
29341;DHT22;16337;59.536;13.468;2023-06-22T14:44:27;30.90;86.50
29341;DHT22;16337;59.536;13.468;2023-06-22T14:46:55;30.90;86.80
29341;DHT22;16337;59.536;13.468;2023-06-22T14:49:20;30.90;86.80
29341;DHT22;16337;59.536;13.468;2023-06-22T14:51:46;30.60;85.30
29341;DHT22;16337;59.536;13.468;2023-06-22T14:54:12;30.00;86.80
29341;DHT22;16337;59.536;13.468;2023-06-22T14:56:38;29.70;88.90
29341;DHT22;16337;59.536;13.468;2023-06-22T14:59:03;29.70;86.00
29341;DHT22;16337;59.536;13.468;2023-06-22T15:01:29;29.60;86.50
29341;DHT22;16337;59.536;13.468;2023-06-22T15:03:55;29.30;87.00
29341;DHT22;16337;59.536;13.468;2023-06-22T15:06:21;29.30;88.30
29341;DHT22;16337;59.536;13.468;2023-06-22T15:08:47;29.30;86.70
29341;DHT22;16337;59.536;13.468;2023-06-22T15:11:13;29.30;88.70
29341;DHT22;16337;59.536;13.468;2023-06-22T15:13:40;29.40;87.40
29341;DHT22;16337;59.536;13.468;2023-06-22T15:16:06;29.50;86.90
29341;DHT22;16337;59.536;13.468;2023-06-22T15:18:38;29.60;90.20
29341;DHT22;16337;59.536;13.468;2023-06-22T15:21:09;30.00;85.80
29341;DHT22;16337;59.536;13.468;2023-06-22T15:23:34;30.20;84.70